Weather at Raiatea Airport

Public forecast

Using degrees Celsius for public forecast. Weather courtesy of forecast.io.

Closest aviation weather report (METAR) to Raiatea Airport

Closest report is Faa'a International Airport, 117.7 nm (218.1 km) ESE. Retrieved 2022/08/12 02:30 UTC (8 minutes ago):

NTAA 120230Z 07017KT 9999 VCSH FEW023 SCT060 27/20 Q1016 NOSIG

Closest aviation forecast (TAF) to Raiatea Airport

Closest forecast is Faa'a International Airport, 117.7 nm (218.1 km) ESE. Retrieved 2022-08-12 00:14 UTC (2 hours ago):

TAF NTAA 112300Z 1200/1306 06015KT 9999 FEW023 SCT050 BECMG 1203/1205 VRB05KT BECMG 1218/1220 05015KT